createdAt,value
2024-04-18T00:04:10.438Z,6.28
2024-04-18T00:09:13.229Z,6.95
2024-04-18T00:14:15.898Z,6.97
2024-04-18T00:19:18.737Z,6.45
2024-04-18T00:24:21.466Z,6.40
2024-04-18T00:29:24.211Z,6.35
2024-04-18T00:34:26.837Z,6.03
2024-04-18T00:39:29.528Z,5.97
2024-04-18T00:44:32.461Z,7.70
2024-04-18T00:49:35.183Z,7.60
2024-04-18T00:54:37.938Z,7.25
2024-04-18T00:59:40.585Z,7.38
2024-04-18T01:04:43.469Z,8.10
2024-04-18T01:09:46.283Z,8.05
2024-04-18T01:14:48.990Z,8.45
2024-04-18T01:19:51.678Z,7.45
2024-04-18T01:24:54.405Z,7.35
2024-04-18T01:29:57.123Z,6.88
2024-04-18T01:34:59.789Z,7.65
2024-04-18T01:40:02.483Z,6.72
2024-04-18T01:45:07.358Z,7.03
2024-04-18T01:50:12.686Z,8.38
2024-04-18T01:55:15.357Z,6.45
2024-04-18T02:05:20.291Z,6.88
2024-04-18T02:10:23.028Z,6.55
2024-04-18T02:15:26.015Z,6.40
2024-04-18T02:20:28.740Z,6.18
2024-04-18T02:25:31.357Z,6.20
2024-04-18T02:30:34.262Z,6.47
2024-04-18T02:35:36.951Z,6.75
2024-04-18T02:40:39.641Z,7.20
2024-04-18T02:45:42.772Z,9.73
2024-04-18T02:50:45.434Z,8.02
2024-04-18T02:55:48.317Z,8.88
2024-04-18T03:00:51.009Z,7.97
2024-04-18T03:06:03.114Z,8.23
2024-04-18T03:11:05.900Z,9.00
2024-04-18T03:16:08.861Z,8.32
2024-04-18T03:21:11.484Z,9.05
2024-04-18T03:26:14.139Z,10.02
2024-04-18T03:31:16.831Z,9.52
2024-04-18T03:36:19.577Z,9.18
2024-04-18T03:41:22.197Z,9.07
2024-04-18T03:46:24.787Z,9.13
2024-04-18T03:56:29.771Z,9.52
2024-04-18T04:01:32.775Z,9.45
2024-04-18T04:06:35.790Z,9.38
2024-04-18T04:11:38.450Z,9.75
2024-04-18T04:16:41.141Z,9.30
2024-04-18T04:21:43.875Z,10.27
2024-04-18T04:26:46.598Z,9.65
2024-04-18T04:31:49.235Z,9.05
2024-04-18T04:36:52.069Z,8.98
2024-04-18T04:41:54.749Z,8.57
2024-04-18T04:46:57.587Z,8.82
2024-04-18T04:52:00.322Z,8.98
2024-04-18T04:57:03.096Z,8.52
2024-04-18T05:02:06.094Z,9.13
2024-04-18T05:07:08.927Z,8.23
2024-04-18T05:12:11.551Z,8.57
2024-04-18T05:17:14.267Z,8.07
2024-04-18T05:22:16.868Z,7.72
2024-04-18T05:27:19.500Z,7.85
2024-04-18T05:32:22.230Z,7.80
2024-04-18T05:37:25.002Z,7.72
2024-04-18T05:42:27.619Z,7.88
2024-04-18T05:47:30.383Z,7.50
2024-04-18T05:52:33.072Z,7.60
2024-04-18T05:57:35.724Z,7.95
2024-04-18T06:02:38.471Z,7.50
2024-04-18T06:07:44.056Z,7.47
2024-04-18T06:12:48.589Z,6.65
2024-04-18T06:17:51.425Z,7.07
2024-04-18T06:22:54.172Z,7.05
2024-04-18T06:27:57.429Z,6.47
2024-04-18T06:33:00.322Z,6.35
2024-04-18T06:38:03.449Z,5.85
2024-04-18T06:43:06.059Z,5.80
2024-04-18T06:48:09.028Z,6.32
2024-04-18T06:53:11.690Z,5.70
2024-04-18T06:58:14.347Z,6.07
2024-04-18T07:03:17.154Z,5.32
2024-04-18T07:08:19.831Z,5.78
2024-04-18T07:13:22.467Z,5.10
2024-04-18T07:18:25.242Z,4.82
2024-04-18T07:23:27.918Z,4.32
2024-04-18T07:28:30.604Z,4.50
2024-04-18T07:33:33.473Z,4.57
2024-04-18T07:38:36.283Z,4.38
2024-04-18T07:43:39.097Z,4.93
2024-04-18T07:48:42.227Z,3.70
2024-04-18T07:53:45.029Z,4.20
2024-04-18T07:58:47.940Z,3.80
2024-04-18T08:04:02.590Z,4.03
2024-04-18T08:09:15.781Z,3.50
2024-04-18T08:14:24.965Z,3.30
2024-04-18T08:19:30.300Z,3.63
2024-04-18T08:24:32.906Z,3.60
2024-04-18T08:29:35.599Z,3.60
2024-04-18T08:34:41.107Z,3.15
2024-04-18T08:39:45.776Z,2.75
2024-04-18T08:44:48.373Z,2.90
2024-04-18T08:49:51.033Z,2.58
2024-04-18T08:54:53.813Z,2.70
2024-04-18T09:00:00.881Z,2.22
2024-04-18T09:05:03.533Z,2.38
2024-04-18T09:10:10.090Z,2.30
2024-04-18T09:15:12.632Z,2.88
2024-04-18T09:20:15.336Z,2.70
2024-04-18T09:25:18.003Z,3.50
2024-04-18T09:30:21.075Z,2.85
2024-04-18T09:35:23.849Z,2.60
2024-04-18T09:40:27.473Z,3.10
2024-04-18T09:45:50.604Z,2.40
2024-04-18T09:50:53.291Z,2.22
2024-04-18T09:55:55.920Z,2.80
2024-04-18T10:00:58.776Z,2.30
2024-04-18T10:06:05.133Z,2.60
2024-04-18T10:11:08.389Z,2.33
2024-04-18T10:16:12.009Z,2.40
2024-04-18T10:21:32.914Z,2.50
2024-04-18T10:26:40.815Z,1.83
2024-04-18T10:31:43.385Z,1.70
2024-04-18T10:36:46.068Z,1.92
2024-04-18T10:41:48.713Z,1.80
2024-04-18T10:46:51.663Z,2.22
2024-04-18T10:51:54.295Z,2.30
2024-04-18T10:56:56.960Z,2.70
2024-04-18T11:02:08.778Z,3.00
2024-04-18T11:07:11.482Z,3.13
2024-04-18T11:12:14.237Z,2.50
2024-04-18T11:17:16.902Z,2.90
2024-04-18T11:22:19.517Z,2.60
2024-04-18T11:27:26.998Z,2.80
2024-04-18T11:32:32.454Z,2.90
2024-04-18T11:37:39.542Z,3.05
2024-04-18T11:42:43.498Z,2.80
2024-04-18T11:47:46.422Z,3.00
2024-04-18T11:52:49.126Z,3.47
2024-04-18T11:57:51.765Z,3.38
2024-04-18T12:02:54.540Z,3.00
2024-04-18T12:07:57.353Z,3.13
2024-04-18T12:12:59.950Z,2.95
2024-04-18T12:18:02.709Z,3.33
2024-04-18T12:23:05.504Z,2.90
2024-04-18T12:28:08.094Z,3.33
2024-04-18T12:33:13.572Z,3.65
2024-04-18T12:38:16.403Z,4.05
2024-04-18T12:43:20.409Z,3.85
2024-04-18T12:48:23.213Z,3.85
2024-04-18T12:53:26.075Z,3.97
2024-04-18T12:58:28.683Z,3.60
2024-04-18T13:03:31.458Z,3.30
2024-04-18T13:08:34.176Z,3.28
2024-04-18T13:13:36.746Z,3.08
2024-04-18T13:23:41.612Z,3.00
2024-04-18T13:28:44.241Z,2.45
2024-04-18T13:33:47.066Z,2.17
2024-04-18T13:38:50.491Z,2.78
2024-04-18T13:43:53.072Z,2.95
2024-04-18T13:48:55.673Z,3.25
2024-04-18T13:53:58.399Z,2.60
2024-04-18T13:59:01.087Z,2.80
2024-04-18T14:04:04.279Z,2.92
2024-04-18T14:09:09.368Z,3.17
2024-04-18T14:14:15.822Z,3.40
2024-04-18T14:24:20.993Z,4.30
2024-04-18T14:29:23.764Z,3.75
2024-04-18T14:34:26.525Z,3.67
2024-04-18T14:39:29.249Z,3.97
2024-04-18T14:44:31.969Z,3.42
2024-04-18T14:49:34.637Z,3.20
2024-04-18T14:54:37.287Z,2.70
2024-04-18T14:59:39.918Z,2.90
2024-04-18T15:04:42.633Z,2.72
2024-04-18T15:09:45.395Z,2.60
2024-04-18T15:14:50.177Z,2.70
2024-04-18T15:19:53.568Z,3.13
2024-04-18T15:24:56.144Z,2.47
2024-04-18T15:35:01.063Z,2.30
2024-04-18T15:40:03.895Z,2.75
2024-04-18T15:45:10.245Z,2.58
2024-04-18T15:50:13.191Z,2.90
2024-04-18T16:00:24.867Z,2.97
2024-04-18T16:05:27.572Z,3.15
2024-04-18T16:10:30.334Z,3.03
2024-04-18T16:15:33.186Z,2.88
2024-04-18T16:20:36.036Z,2.95
2024-04-18T16:25:38.751Z,3.20
2024-04-18T16:30:46.266Z,3.70
2024-04-18T16:35:48.972Z,3.30
2024-04-18T16:40:52.175Z,3.97
2024-04-18T16:45:55.426Z,4.25
2024-04-18T16:50:58.010Z,3.42
2024-04-18T16:56:00.684Z,3.85
2024-04-18T17:01:03.887Z,3.70
2024-04-18T17:06:07.010Z,4.00
2024-04-18T17:11:09.720Z,4.22
2024-04-18T17:16:12.845Z,4.07
2024-04-18T17:21:15.641Z,4.68
2024-04-18T17:26:18.372Z,4.10
2024-04-18T17:31:21.106Z,4.43
2024-04-18T17:36:23.806Z,4.00
2024-04-18T17:41:26.603Z,3.97
2024-04-18T17:46:29.443Z,3.97
2024-04-18T17:51:32.223Z,4.50
2024-04-18T17:56:34.954Z,4.25
2024-04-18T18:01:39.961Z,4.32
2024-04-18T18:06:44.460Z,4.50
2024-04-18T18:17:31.267Z,4.22
2024-04-18T18:22:33.974Z,4.25
2024-04-18T18:27:36.660Z,4.25
2024-04-18T18:32:39.503Z,4.47
2024-04-18T18:37:42.284Z,4.70
2024-04-18T18:42:44.974Z,4.07
2024-04-18T18:47:47.849Z,4.78
2024-04-18T18:52:50.570Z,3.38
2024-04-18T18:57:53.283Z,3.42
2024-04-18T19:03:32.978Z,3.95
2024-04-18T19:08:41.722Z,3.53
2024-04-18T19:13:50.161Z,3.40
2024-04-18T19:18:52.878Z,3.45
2024-04-18T19:23:55.534Z,3.25
2024-04-18T19:34:00.727Z,2.90
2024-04-18T19:39:03.739Z,1.98
2024-04-18T19:44:06.367Z,3.28
2024-04-18T19:49:09.586Z,2.97
2024-04-18T19:54:12.310Z,2.55
2024-04-18T19:59:15.084Z,2.92
2024-04-18T20:05:06.993Z,2.70
2024-04-18T20:10:21.559Z,2.92
2024-04-18T20:15:24.244Z,2.40
2024-04-18T20:20:26.865Z,2.72
2024-04-18T20:30:31.771Z,3.17
2024-04-18T20:35:34.551Z,3.72
2024-04-18T20:40:37.257Z,4.03
2024-04-18T20:45:39.899Z,2.28
2024-04-18T20:50:42.635Z,2.65
2024-04-18T20:55:45.319Z,1.90
2024-04-18T21:00:48.078Z,1.95
2024-04-18T21:05:50.927Z,2.05
2024-04-18T21:10:53.675Z,2.10
2024-04-18T21:16:00.493Z,1.95
2024-04-18T21:21:03.204Z,2.00
2024-04-18T21:26:06.266Z,1.83
2024-04-18T21:31:08.871Z,1.80
2024-04-18T21:41:13.780Z,1.80
2024-04-18T21:46:16.398Z,1.80
2024-04-18T21:51:19.167Z,1.92
2024-04-18T21:56:21.891Z,2.10
2024-04-18T22:01:24.645Z,1.85
2024-04-18T22:06:27.401Z,2.15
2024-04-18T22:11:30.294Z,1.98
2024-04-18T22:16:32.981Z,2.00
2024-04-18T22:21:39.114Z,2.10
2024-04-18T22:26:41.786Z,2.20
2024-04-18T22:31:44.636Z,2.08
2024-04-18T22:36:47.309Z,2.33
2024-04-18T22:41:49.986Z,2.38
2024-04-18T22:46:52.656Z,2.50
2024-04-18T22:51:55.355Z,2.33
2024-04-18T22:56:58.005Z,2.40
2024-04-18T23:02:00.968Z,2.47
2024-04-18T23:07:03.756Z,2.45
2024-04-18T23:12:06.646Z,2.60
2024-04-18T23:17:09.257Z,2.75
2024-04-18T23:27:14.334Z,2.90
2024-04-18T23:32:17.091Z,2.72
2024-04-18T23:37:19.800Z,3.28
2024-04-18T23:42:22.518Z,4.00
2024-04-18T23:47:25.401Z,4.78
2024-04-18T23:52:28.118Z,4.30
2024-04-18T23:57:30.792Z,4.78
